Stations météo

réclame
Mon MeteoGroup
Carrion de los Condes, Espagne (8068): Température de l'air & dewpoint: 19.11.2017 02:00:00 - 25.11.2017 02:00:00 (CET)Carrion de los Condes, Espagne (8068): Vitesse du vent & gusts: 19.11.2017 02:00:00 - 25.11.2017 02:00:00 (CET)Carrion de los Condes, Espagne (8068): Direction du vent: 19.11.2017 02:00:00 - 25.11.2017 02:00:00 (CET)Carrion de los Condes, Espagne (8068): visibility: 19.11.2017 02:00:00 - 25.11.2017 02:00:00 (CET)Carrion de los Condes, Espagne (8068): Ensoleillement: 19.11.2017 02:00:00 - 25.11.2017 02:00:00 (CET)Carrion de los Condes, Espagne (8068): Quantités de précipitations: 19.11.2017 02:00:00 - 25.11.2017 02:00:00 (CET)
Date & Time tt [°C] td [°C] ff [km/h] ff [knt] fx [km/h] fx [knt] dd vv [km] sd [min] rr [mm]
25.11.2017 02:00:00 10,7 10,0 3 2 30 16 WSW 9 0 0,6
25.11.2017 01:00:00 10,8 10,0 15 8 37 20 SW 8 0 -
25.11.2017 00:00:00 10,9 9,8 16 8 34 18 SW 13 0 0,0
24.11.2017 23:00:00 11,1 10,0 21 12 41 22 SW 20 0 0,0
24.11.2017 22:00:00 11,0 10,0 15 8 34 18 SSW 20 0 0,2
24.11.2017 21:00:00 11,2 10,0 16 9 32 18 SW 20 0 0,0
24.11.2017 20:00:00 10,7 9,2 14 8 24 13 SSW 20 0 0,0
24.11.2017 19:00:00 10,0 8,1 6 3 13 7 SSW 20 0 -
24.11.2017 18:00:00 11,6 8,4 7 4 20 11 SW 6 0 0,0
24.11.2017 17:00:00 12,5 8,5 10 5 31 17 SW 20 38 0,0
24.11.2017 16:00:00 13,5 8,8 14 8 31 17 SW 20 7 0,0
24.11.2017 15:00:00 12,8 9,7 13 7 33 18 SW 20 1 0,0
24.11.2017 14:00:00 12,6 9,2 15 8 34 18 SW 20 0 0,0
24.11.2017 13:00:00 12,1 9,8 14 8 35 19 SW 20 0 -
24.11.2017 12:00:00 11,5 9,9 14 8 33 18 SW 20 0 0,0
24.11.2017 11:00:00 10,5 9,3 18 10 36 19 SW 20 0 0,0
24.11.2017 10:00:00 10,0 8,8 16 9 37 20 SSW 20 0 0,0
24.11.2017 09:00:00 9,5 8,5 16 9 32 18 SW 16 0 0,0
24.11.2017 08:00:00 8,9 8,1 9 5 18 10 SSW 6 0 0,0
24.11.2017 07:00:00 8,7 8,0 4 2 11 6 SSW 5 0 -
24.11.2017 06:00:00 8,5 7,6 4 2 13 7 S 14 0 0,6
24.11.2017 05:00:00 8,4 7,7 3 2 8 5 S 13 0 0,2
24.11.2017 04:00:00 8,5 7,7 2 1 14 7 SSE 10 0 0,0
24.11.2017 03:00:00 8,6 7,7 7 4 22 12 SW 7 0 0,2
24.11.2017 02:00:00 8,7 7,4 9 5 37 20 SW 5 0 1,2
24.11.2017 01:00:00 11,5 2,3 22 12 42 23 SW 20 0 -
24.11.2017 00:00:00 10,1 1,3 8 4 19 10 SW 20 0 0,0
23.11.2017 23:00:00 10,4 2,1 4 2 25 13 WSW 20 0 0,0
23.11.2017 22:00:00 11,6 2,1 10 6 29 16 SW 20 0 0,0
23.11.2017 21:00:00 10,3 3,9 5 3 24 13 SW 20 0 0,0
23.11.2017 20:00:00 11,0 4,5 10 5 21 11 SW 20 0 0,0
23.11.2017 19:00:00 10,6 5,8 7 4 19 10 WSW 20 0 -
23.11.2017 18:00:00 12,8 6,5 7 4 33 18 WSW 20 0 0,0
23.11.2017 17:00:00 14,4 7,7 13 7 35 19 SW 20 0 0,0
23.11.2017 16:00:00 14,4 8,5 14 7 30 16 SW 20 18 0,0
23.11.2017 15:00:00 14,3 8,9 10 6 29 16 WSW 20 10 0,0
23.11.2017 14:00:00 13,0 8,5 11 6 37 20 SW 20 0 0,0
23.11.2017 13:00:00 13,5 8,8 16 9 42 23 SW 20 21 -
23.11.2017 12:00:00 13,2 7,8 17 9 39 21 SW 20 3 0,0
23.11.2017 11:00:00 11,7 6,8 14 8 37 20 SW 20 1 0,0
23.11.2017 10:00:00 11,0 5,3 16 9 38 21 SW 20 23 0,0
23.11.2017 09:00:00 9,3 4,1 13 7 33 18 SSW 20 0 0,0
23.11.2017 08:00:00 9,4 3,9 21 11 36 19 SSW 20 0 0,0
23.11.2017 07:00:00 9,2 3,6 11 6 20 11 SW 20 0 -
23.11.2017 06:00:00 9,4 3,4 9 5 25 13 SSW 20 0 0,0
23.11.2017 05:00:00 10,1 0,6 11 6 23 13 SSW 20 0 0,0
23.11.2017 04:00:00 9,3 -0,3 9 5 17 9 SSW 20 0 0,0
23.11.2017 03:00:00 8,4 -0,5 12 7 21 11 SSW 20 0 0,0
23.11.2017 02:00:00 7,3 -0,3 9 5 17 9 SW 20 0 0,0
23.11.2017 01:00:00 6,3 -0,7 4 2 11 6 WSW 20 0 -
23.11.2017 00:00:00 9,1 -1,0 5 3 24 13 SW 20 0 0,0
22.11.2017 23:00:00 10,3 -1,4 11 6 30 16 SSW 20 0 0,0
22.11.2017 22:00:00 11,1 -2,0 18 10 31 17 SSW 20 0 0,0
22.11.2017 21:00:00 11,3 -2,0 16 9 31 17 SSW 20 0 0,0
22.11.2017 20:00:00 12,0 -2,0 13 7 24 13 SSW 20 0 0,0
22.11.2017 19:00:00 12,5 -0,7 10 5 22 12 SSW 20 0 -
22.11.2017 18:00:00 11,9 0,0 4 2 14 8 WSW 20 0 0,0
22.11.2017 17:00:00 14,4 -1,2 7 4 29 16 SW 20 29 0,0
22.11.2017 16:00:00 16,3 -1,7 13 7 29 15 SW 20 59 0,0
22.11.2017 15:00:00 16,5 -1,7 12 6 29 16 SW 20 60 0,0
22.11.2017 14:00:00 14,8 -1,7 5 3 12 6 SW 20 60 0,0
22.11.2017 13:00:00 12,2 -1,4 4 2 12 6 SSE 20 60 -
22.11.2017 12:00:00 8,9 -1,0 5 3 11 6 E 20 60 0,0
22.11.2017 11:00:00 6,0 -2,0 4 2 11 6 E 20 60 0,0
22.11.2017 10:00:00 1,9 -1,0 4 2 9 5 ENE 20 59 0,0
22.11.2017 09:00:00 -3,4 -3,9 1 1 5 3 NNE 14 13 0,0
22.11.2017 08:00:00 -4,3 -5,1 2 1 4 2 N 9 0 0,0
22.11.2017 07:00:00 -3,7 -4,5 2 1 5 3 NNW 11 0 -
22.11.2017 06:00:00 -4,2 -4,8 1 1 5 3 N 10 0 0,0
22.11.2017 05:00:00 -4,0 -4,8 0 0 3 2 N 10 0 0,0
22.11.2017 04:00:00 -3,4 -4,2 3 1 5 3 NNW 10 0 0,0
22.11.2017 03:00:00 -2,5 -3,0 3 2 5 3 NNW 15 0 0,0
22.11.2017 02:00:00 -3,1 -3,9 1 1 4 2 NNE 10 0 0,0
22.11.2017 01:00:00 -2,8 -3,9 1 1 5 3 N 11 0 -
22.11.2017 00:00:00 -2,5 -3,6 0 0 4 2 N 12 0 0,0
21.11.2017 23:00:00 -1,9 -3,6 2 1 4 2 W 13 0 0,0
21.11.2017 22:00:00 -1,2 -3,0 1 1 3 2 NNE 14 0 0,0
21.11.2017 21:00:00 -0,3 -3,3 1 1 4 2 NNW 18 0 0,0
21.11.2017 20:00:00 1,9 -2,0 2 1 4 2 NW 20 0 0,0
21.11.2017 19:00:00 4,9 -0,3 0 0 3 2 N 20 0 -
21.11.2017 18:00:00 9,1 -0,7 3 1 12 6 SSW 20 2 0,0
21.11.2017 17:00:00 13,5 -2,0 7 4 17 9 SW 20 60 0,0
21.11.2017 16:00:00 15,4 -1,7 6 3 16 9 SW 20 60 0,0
21.11.2017 15:00:00 15,7 -2,0 6 4 18 10 SSW 20 60 0,0
21.11.2017 14:00:00 14,2 -2,0 5 3 13 7 S 20 60 0,0
21.11.2017 13:00:00 12,2 -2,2 5 3 12 6 SSW 20 60 -
21.11.2017 12:00:00 9,6 -1,4 3 1 8 5 SE 20 60 0,0
21.11.2017 11:00:00 5,9 -2,5 3 2 8 4 E 20 60 0,0
21.11.2017 10:00:00 1,5 -2,2 1 1 3 2 NNE 20 60 0,0
21.11.2017 09:00:00 -3,5 -4,2 3 1 4 2 NNW 20 15 0,0
21.11.2017 08:00:00 -4,9 -5,7 0 0 3 1 N 20 0 0,0
21.11.2017 07:00:00 -4,3 -5,1 2 1 3 2 NNW 20 0 -
21.11.2017 06:00:00 -4,2 -5,1 1 1 3 1 NNE 20 0 0,0
21.11.2017 05:00:00 -4,1 -5,1 2 1 4 2 NNW 20 0 0,0
21.11.2017 04:00:00 -3,1 -3,9 3 1 4 2 NW 20 0 0,0
21.11.2017 03:00:00 -3,2 -4,5 0 0 3 2 N 20 0 0,0
21.11.2017 02:00:00 -2,2 -4,2 2 1 4 2 NNW 20 0 0,0
21.11.2017 01:00:00 -2,2 -3,3 1 1 4 2 NE 20 0 -
21.11.2017 00:00:00 -1,8 -3,9 2 1 4 2 NNW 20 0 0,0
20.11.2017 23:00:00 -1,2 -3,3 0 0 5 3 N 20 0 0,0
20.11.2017 22:00:00 0,0 -2,7 3 1 4 2 NW 20 0 0,0
20.11.2017 21:00:00 1,5 -2,2 2 1 4 2 NNW 20 0 0,0
20.11.2017 20:00:00 3,2 -0,7 1 1 4 2 NNE 20 0 0,0
20.11.2017 19:00:00 6,1 -1,4 0 0 4 2 N 20 0 -
20.11.2017 18:00:00 9,9 -1,2 0 0 10 6 N 20 2 0,0
20.11.2017 17:00:00 14,0 -3,0 7 4 15 8 SSW 20 60 0,0
20.11.2017 16:00:00 16,2 -5,7 5 3 17 9 WSW 20 60 0,0
20.11.2017 15:00:00 16,4 -6,0 8 4 20 11 SW 20 60 0,0
20.11.2017 14:00:00 15,5 -5,7 5 3 16 9 WSW 20 60 0,0
20.11.2017 13:00:00 12,9 -4,8 7 4 16 9 SSW 20 60 -
20.11.2017 12:00:00 9,8 -3,3 5 3 12 7 S 20 60 0,0
20.11.2017 11:00:00 6,6 -2,7 4 2 10 5 ESE 20 60 0,0
20.11.2017 10:00:00 2,9 -1,2 0 0 5 3 N 20 58 0,0
20.11.2017 09:00:00 -2,9 -3,6 0 0 4 2 N 20 19 0,0
20.11.2017 08:00:00 -3,8 -4,8 0 0 2 1 N 20 0 0,0
20.11.2017 07:00:00 -3,0 -3,9 1 1 3 2 NNW 20 0 -
20.11.2017 06:00:00 -3,1 -5,1 0 0 3 2 N 20 0 0,0
20.11.2017 05:00:00 -2,8 -4,2 1 1 4 2 W 20 0 0,0
20.11.2017 04:00:00 -2,7 -4,8 1 1 4 2 ENE 20 0 0,0
20.11.2017 03:00:00 -2,5 -4,8 1 1 5 3 W 20 0 0,0
20.11.2017 02:00:00 -1,7 -4,2 0 0 8 4 N 20 0 0,0
20.11.2017 01:00:00 -2,0 -4,5 2 1 9 5 NE 20 0 -
20.11.2017 00:00:00 -1,5 -4,2 0 0 5 3 N 20 0 0,0
19.11.2017 23:00:00 -0,7 -3,9 2 1 4 2 NNW 20 0 0,0
19.11.2017 22:00:00 0,3 -4,5 1 1 5 3 NNW 20 0 0,0
19.11.2017 21:00:00 1,7 -4,5 2 1 5 3 NNW 20 0 0,0
19.11.2017 20:00:00 3,4 -5,1 1 1 7 4 ESE 20 0 0,0
19.11.2017 19:00:00 5,9 -4,8 4 2 8 4 N 20 0 -
19.11.2017 18:00:00 10,1 -5,1 2 1 10 5 NNE 20 1 0,0
19.11.2017 17:00:00 14,9 -11,7 4 2 15 8 E 20 60 0,0
19.11.2017 16:00:00 16,9 -13,9 5 3 16 9 E 20 60 0,0
19.11.2017 15:00:00 16,9 -12,8 5 3 18 10 NNE 20 60 0,0
19.11.2017 14:00:00 15,7 -11,7 8 4 15 8 ENE 20 60 0,0
19.11.2017 13:00:00 14,3 -12,2 7 4 18 10 NE 20 60 -
19.11.2017 12:00:00 12,3 -11,2 8 4 18 10 NE 20 60 0,0
19.11.2017 11:00:00 8,9 -7,5 6 4 13 7 NE 20 60 0,0
19.11.2017 10:00:00 2,7 0,9 0 0 3 2 N 20 59 0,0
19.11.2017 09:00:00 -3,0 -3,6 0 0 4 2 N 20 23 0,0
19.11.2017 08:00:00 -3,9 -4,5 1 1 5 3 WNW 20 0 0,0
19.11.2017 07:00:00 -3,7 -4,5 1 1 5 3 WNW 20 0 -
19.11.2017 06:00:00 -3,1 -3,9 0 0 3 2 N 20 0 0,0
19.11.2017 05:00:00 -2,6 -3,6 0 0 6 3 N 20 0 0,0
19.11.2017 04:00:00 -1,6 -2,5 2 1 6 3 WSW 20 0 0,0
19.11.2017 03:00:00 -0,4 -2,0 2 1 8 5 WNW 20 0 0,0
19.11.2017 02:00:00 1,0 -1,4 4 2 14 7 NNW 20 0 0,0

tt = Température de l'air
td = dewpoint
ff = Vitesse du vent
fx = gusts
dd = Direction du vent
vv = visibility
sd = Ensoleillement
rr = Quantités de précipitations

stations d'obs. à proximité